Time;durP1;ratioP1;P1;durP2;ratioP2;P2;SDS_P1;SDS_P2;PMS_P1;PMS_P2;Temp;Humidity;BMP_temperature;BMP_pressure;BME280_temperature;BME280_humidity;BME280_pressure;Samples;Min_cycle;Max_cycle;Signal;HPM_P1;HPM_P2
2021/04/26 00:01:24;;;;;;;11.23;3.22;;;7.40;63.30;;;;;;5094062;28;20027;-74
2021/04/26 00:03:50;;;;;;;16.23;3.67;;;7.30;63.40;;;;;;5092631;28;20036;-74
2021/04/26 00:06:16;;;;;;;8.48;3.60;;;7.30;63.60;;;;;;5075891;28;20110;-74
2021/04/26 00:08:41;;;;;;;14.07;3.25;;;7.30;63.70;;;;;;5093726;28;20051;-74
2021/04/26 00:11:08;;;;;;;9.45;2.70;;;7.30;63.90;;;;;;5092168;28;20036;-74
2021/04/26 00:13:33;;;;;;;13.35;3.13;;;7.20;64.10;;;;;;5092450;28;20028;-74
2021/04/26 00:15:59;;;;;;;11.23;3.67;;;7.20;64.40;;;;;;5092705;28;20035;-74
2021/04/26 00:18:25;;;;;;;9.35;3.17;;;7.20;64.60;;;;;;5093458;28;20028;-74
2021/04/26 00:20:50;;;;;;;10.68;3.22;;;7.10;64.60;;;;;;5092423;28;20020;-74
2021/04/26 00:23:16;;;;;;;15.48;3.45;;;7.10;64.60;;;;;;5092800;28;20032;-74
2021/04/26 00:25:41;;;;;;;11.60;3.42;;;7.10;64.80;;;;;;5093769;28;20117;-74
2021/04/26 00:28:07;;;;;;;15.23;3.10;;;7.10;64.90;;;;;;5091995;28;20425;-74
2021/04/26 00:30:33;;;;;;;10.00;2.90;;;7.00;65.10;;;;;;5093839;28;20036;-74
2021/04/26 00:32:59;;;;;;;9.85;3.03;;;7.00;65.40;;;;;;5093493;28;20039;-74
2021/04/26 00:35:25;;;;;;;10.02;3.63;;;7.00;65.60;;;;;;5091516;28;20119;-74
2021/04/26 00:37:52;;;;;;;6.22;2.80;;;6.90;65.70;;;;;;5092971;28;20169;-74
2021/04/26 00:40:19;;;;;;;11.65;3.10;;;6.90;65.70;;;;;;5092154;28;20488;-74
2021/04/26 00:42:45;;;;;;;9.77;3.72;;;6.90;65.80;;;;;;5092868;28;20036;-74
2021/04/26 00:45:14;;;;;;;14.80;3.83;;;6.90;66.10;;;;;;5093740;28;20031;-74
2021/04/26 00:47:40;;;;;;;;;;;6.80;66.00;;;;;;5092635;28;20028;-74
2021/04/26 00:50:14;;;;;;;14.48;3.78;;;6.80;66.80;;;;;;5093853;28;19916;-74
2021/04/26 00:52:42;;;;;;;10.55;3.40;;;6.70;66.50;;;;;;5092316;28;20058;-74
2021/04/26 00:55:08;;;;;;;10.93;3.58;;;6.70;66.60;;;;;;5092605;28;20024;-74
2021/04/26 00:57:34;;;;;;;12.98;3.33;;;6.70;66.60;;;;;;5093518;28;20099;-74
2021/04/26 00:59:59;;;;;;;18.05;4.03;;;6.70;66.70;;;;;;5092950;28;20039;-74
2021/04/26 01:02:25;;;;;;;9.85;3.92;;;6.60;66.70;;;;;;5091451;28;20046;-74
2021/04/26 01:04:53;;;;;;;7.72;3.00;;;6.60;67.00;;;;;;5092171;28;20032;-74
2021/04/26 01:07:18;;;;;;;9.95;3.10;;;6.60;67.20;;;;;;5092376;28;20118;-74
2021/04/26 01:09:44;;;;;;;12.57;3.40;;;6.50;67.40;;;;;;5091320;28;20046;-74
2021/04/26 01:12:26;;;;;;;10.57;3.33;;;6.50;67.40;;;;;;5090719;28;20032;-74
2021/04/26 01:15:04;;;;;;;14.13;3.65;;;6.50;67.40;;;;;;5081931;28;20373;-74
2021/04/26 01:17:35;;;;;;;6.40;3.38;;;6.50;67.40;;;;;;5092419;28;20422;-74
2021/04/26 01:20:26;;;;;;;7.63;2.92;;;6.40;67.40;;;;;;5092926;28;20036;-74
2021/04/26 01:23:26;;;;;;;12.43;2.97;;;6.40;67.50;;;;;;5092439;28;20077;-74
2021/04/26 01:25:53;;;;;;;10.48;3.13;;;6.40;67.70;;;;;;5091023;28;20385;-74
2021/04/26 01:28:54;;;;;;;8.93;2.78;;;6.30;67.80;;;;;;5091891;28;20028;-74
2021/04/26 01:31:29;;;;;;;14.55;3.10;;;6.20;68.00;;;;;;5059807;28;20429;-74
2021/04/26 01:33:58;;;;;;;6.88;2.70;;;6.20;68.00;;;;;;5091809;28;20032;-74
2021/04/26 01:36:27;;;;;;;7.82;3.25;;;6.20;68.10;;;;;;5091328;28;20050;-74
2021/04/26 01:38:54;;;;;;;;;;;6.20;68.10;;;;;;5093248;28;20028;-74
2021/04/26 01:41:22;;;;;;;5.30;2.55;;;6.10;68.00;;;;;;5091340;28;19908;-74
2021/04/26 01:43:48;;;;;;;6.53;2.28;;;6.10;69.00;;;;;;5074128;28;20028;-74
2021/04/26 01:46:15;;;;;;;11.77;2.70;;;6.10;68.30;;;;;;5092132;28;20028;-74
2021/04/26 01:48:43;;;;;;;13.48;2.78;;;6.10;68.50;;;;;;5092382;28;20089;-74
2021/04/26 01:51:11;;;;;;;9.07;2.60;;;6.00;68.40;;;;;;5091988;28;20035;-74
2021/04/26 01:53:39;;;;;;;8.75;2.72;;;6.00;68.50;;;;;;5092119;28;20381;-74
2021/04/26 01:56:07;;;;;;;6.43;2.67;;;6.00;68.50;;;;;;5092136;28;20048;-74
2021/04/26 01:58:33;;;;;;;10.38;2.85;;;6.00;68.70;;;;;;5090566;28;20028;-74
2021/04/26 02:01:00;;;;;;;7.50;2.45;;;6.00;68.70;;;;;;5090881;28;20036;-74
2021/04/26 02:03:27;;;;;;;12.95;2.53;;;5.90;68.60;;;;;;5092324;28;20508;-74
2021/04/26 02:05:55;;;;;;;7.75;2.60;;;5.90;68.80;;;;;;5091263;28;20028;-74
2021/04/26 02:08:21;;;;;;;5.40;2.30;;;5.80;68.90;;;;;;5091678;28;20036;-74
2021/04/26 02:10:48;;;;;;;8.05;2.42;;;5.80;68.90;;;;;;5075925;28;20085;-74
2021/04/26 02:13:19;;;;;;;9.82;3.08;;;5.80;69.10;;;;;;5070405;28;20489;-74
2021/04/26 02:15:46;;;;;;;9.52;2.97;;;5.70;69.20;;;;;;5088561;28;20089;-74
2021/04/26 02:18:12;;;;;;;17.08;3.28;;;5.70;69.30;;;;;;5091505;28;20111;-74
2021/04/26 02:20:38;;;;;;;11.27;3.50;;;5.60;69.40;;;;;;5090345;28;20028;-74
2021/04/26 02:23:04;;;;;;;7.65;3.03;;;5.60;69.60;;;;;;5090780;28;20388;-74
2021/04/26 02:25:30;;;;;;;5.78;2.30;;;5.50;69.80;;;;;;5090910;28;20039;-74
2021/04/26 02:27:55;;;;;;;9.77;3.20;;;5.50;69.70;;;;;;5091943;28;20052;-74
2021/04/26 02:30:22;;;;;;;11.40;3.13;;;5.60;69.90;;;;;;5073335;28;20463;-74
2021/04/26 02:33:11;;;;;;;11.30;2.72;;;5.50;69.80;;;;;;5091750;28;20107;-76
2021/04/26 02:35:39;;;;;;;9.75;2.90;;;5.50;69.90;;;;;;5091321;28;20070;-76
2021/04/26 02:38:08;;;;;;;8.57;3.00;;;5.50;70.00;;;;;;5092000;28;20025;-76
2021/04/26 02:40:46;;;;;;;8.35;2.90;;;5.50;70.10;;;;;;5090243;28;20038;-77
2021/04/26 02:43:14;;;;;;;12.98;2.90;;;5.40;70.20;;;;;;5090465;28;20038;-76
2021/04/26 02:45:46;;;;;;;5.03;2.75;;;5.40;70.30;;;;;;5082770;28;20377;-76
2021/04/26 02:48:13;;;;;;;10.10;2.83;;;5.40;70.30;;;;;;5094422;28;20035;-76
2021/04/26 02:50:39;;;;;;;10.73;2.97;;;5.40;70.30;;;;;;5095891;28;20043;-76
2021/04/26 02:53:05;;;;;;;11.75;2.70;;;5.40;70.20;;;;;;5094670;28;20114;-76
2021/04/26 02:55:32;;;;;;;5.07;2.63;;;5.40;70.00;;;;;;5096626;28;20047;-77
2021/04/26 02:57:57;;;;;;;6.82;2.60;;;5.40;70.10;;;;;;5096020;28;20062;-77
2021/04/26 03:00:24;;;;;;;7.03;2.83;;;5.30;70.20;;;;;;5095520;28;20074;-76
2021/04/26 03:02:51;;;;;;;6.68;3.25;;;5.30;70.40;;;;;;5096570;28;20032;-77
2021/04/26 03:05:17;;;;;;;11.85;3.28;;;5.30;70.30;;;;;;5095641;28;20035;-75
2021/04/26 03:07:44;;;;;;;8.02;2.42;;;5.30;70.30;;;;;;5094202;28;20560;-75
2021/04/26 03:10:13;;;;;;;7.43;2.95;;;5.30;70.50;;;;;;5094129;28;20046;-75
2021/04/26 03:12:42;;;;;;;9.48;2.83;;;5.30;70.60;;;;;;5095593;28;20491;-78
2021/04/26 03:15:10;;;;;;;7.15;2.97;;;5.20;70.50;;;;;;5095929;28;20101;-78
2021/04/26 03:17:37;;;;;;;8.60;2.83;;;5.20;70.70;;;;;;5084651;28;20023;-78
2021/04/26 03:20:09;;;;;;;7.40;3.30;;;5.20;70.70;;;;;;5096144;28;20028;-78
2021/04/26 03:22:38;;;;;;;7.60;2.55;;;5.20;70.70;;;;;;5095854;28;20020;-78
2021/04/26 03:25:04;;;;;;;11.38;3.38;;;5.10;70.80;;;;;;5095731;28;20024;-78
2021/04/26 03:27:30;;;;;;;11.50;3.40;;;5.10;71.00;;;;;;5095690;28;20036;-78
2021/04/26 03:29:58;;;;;;;10.93;3.45;;;5.10;71.10;;;;;;5095532;28;20028;-78
2021/04/26 03:32:25;;;;;;;8.18;3.00;;;5.00;71.10;;;;;;5095616;28;20035;-77
2021/04/26 03:34:51;;;;;;;10.95;3.50;;;5.00;71.20;;;;;;5095870;28;20078;-78
2021/04/26 03:37:17;;;;;;;9.18;3.22;;;5.00;71.30;;;;;;5095480;28;20087;-78
2021/04/26 03:39:45;;;;;;;13.57;3.28;;;5.00;71.30;;;;;;5077317;28;20119;-74
2021/04/26 03:42:13;;;;;;;9.45;3.40;;;5.00;71.50;;;;;;5093227;28;20125;-74
2021/04/26 03:44:41;;;;;;;6.88;2.85;;;4.90;71.40;;;;;;5093528;28;20031;-74
2021/04/26 03:47:07;;;;;;;6.22;2.95;;;4.90;71.60;;;;;;5093650;28;20028;-74
2021/04/26 03:49:33;;;;;;;6.65;2.97;;;4.80;71.70;;;;;;5093630;28;20089;-74
2021/04/26 03:51:58;;;;;;;7.13;3.28;;;4.70;71.80;;;;;;5094376;28;20404;-77
2021/04/26 03:54:24;;;;;;;9.18;3.58;;;4.70;72.00;;;;;;5093869;28;20520;-78
2021/04/26 03:56:50;;;;;;;8.75;3.15;;;4.70;72.10;;;;;;5093369;28;20028;-78
2021/04/26 03:59:16;;;;;;;8.50;3.28;;;4.60;72.10;;;;;;5095094;28;20028;-78
2021/04/26 04:01:43;;;;;;;9.13;3.28;;;4.60;72.30;;;;;;5093826;28;20126;-77
2021/04/26 04:04:08;;;;;;;8.30;2.72;;;4.60;72.30;;;;;;5095343;28;20019;-77
2021/04/26 04:06:34;;;;;;;11.23;4.07;;;4.50;72.30;;;;;;5095059;28;20028;-77
2021/04/26 04:09:04;;;;;;;6.95;3.40;;;4.50;72.70;;;;;;5095007;28;20426;-77
2021/04/26 04:11:30;;;;;;;8.45;3.17;;;4.50;72.80;;;;;;5094834;28;20024;-77
2021/04/26 04:13:56;;;;;;;9.15;3.50;;;4.50;73.10;;;;;;5093645;28;20388;-77
2021/04/26 04:16:21;;;;;;;9.07;3.47;;;4.50;73.10;;;;;;5094841;28;20020;-76
2021/04/26 04:18:47;;;;;;;9.93;3.53;;;4.40;72.90;;;;;;5094930;28;20078;-77
2021/04/26 04:21:13;;;;;;;7.68;3.72;;;4.40;72.90;;;;;;5094560;28;20036;-77
2021/04/26 04:23:39;;;;;;;6.90;3.35;;;4.40;73.10;;;;;;5094749;28;20028;-77
2021/04/26 04:26:05;;;;;;;6.53;3.08;;;4.40;73.20;;;;;;5094530;28;20034;-77
2021/04/26 04:28:31;;;;;;;7.18;3.40;;;4.40;73.10;;;;;;5076526;28;20629;-77
2021/04/26 04:30:58;;;;;;;7.53;3.35;;;4.40;73.00;;;;;;5094695;28;20465;-77
2021/04/26 04:33:24;;;;;;;6.07;3.33;;;4.30;73.00;;;;;;5094586;28;20376;-77
2021/04/26 04:35:50;;;;;;;6.88;2.88;;;4.30;73.20;;;;;;5092991;28;20139;-76
2021/04/26 04:38:16;;;;;;;8.70;3.50;;;4.30;73.20;;;;;;5094520;28;20020;-77
2021/04/26 04:40:41;;;;;;;10.52;3.75;;;4.30;73.20;;;;;;5093236;28;20032;-77
2021/04/26 04:43:07;;;;;;;9.45;3.70;;;4.30;73.00;;;;;;5093081;28;20020;-78
2021/04/26 04:45:32;;;;;;;6.45;3.45;;;4.30;73.20;;;;;;5075962;28;20028;-76
2021/04/26 04:47:58;;;;;;;9.23;3.72;;;4.30;73.20;;;;;;5093117;28;20059;-77
2021/04/26 04:50:24;;;;;;;9.38;3.47;;;4.30;73.30;;;;;;5094349;28;20093;-77
2021/04/26 04:52:50;;;;;;;8.07;3.45;;;4.30;73.30;;;;;;5092890;28;20024;-77
2021/04/26 04:55:16;;;;;;;6.35;3.28;;;4.30;73.20;;;;;;5093717;28;20503;-77
2021/04/26 04:57:41;;;;;;;7.53;3.33;;;4.30;73.10;;;;;;5093892;28;20419;-77
2021/04/26 05:00:08;;;;;;;8.43;3.50;;;4.30;73.10;;;;;;5092931;28;20123;-77
2021/04/26 05:02:33;;;;;;;7.57;3.22;;;4.30;73.20;;;;;;5093922;28;20524;-77
2021/04/26 05:04:59;;;;;;;6.32;3.33;;;4.30;73.20;;;;;;5094339;28;20032;-76
2021/04/26 05:07:25;;;;;;;6.30;3.13;;;4.40;73.30;;;;;;5092753;28;20028;-76
2021/04/26 05:09:51;;;;;;;7.10;3.05;;;4.40;73.30;;;;;;5093411;28;20032;-77
2021/04/26 05:12:16;;;;;;;8.18;3.10;;;4.40;73.40;;;;;;5093753;28;20032;-77
2021/04/26 05:14:45;;;;;;;7.93;3.80;;;4.40;73.30;;;;;;5092684;28;20028;-77
2021/04/26 05:17:11;;;;;;;9.40;3.53;;;4.40;73.40;;;;;;5093758;28;20020;-77
2021/04/26 05:19:37;;;;;;;7.60;3.22;;;4.40;73.60;;;;;;5092471;28;20028;-77
2021/04/26 05:22:03;;;;;;;8.73;3.38;;;4.40;73.80;;;;;;5093740;28;20028;-77
2021/04/26 05:24:30;;;;;;;7.78;3.28;;;4.40;73.70;;;;;;5086756;28;20036;-76
2021/04/26 05:26:55;;;;;;;12.25;3.88;;;4.50;73.60;;;;;;5100213;28;20028;-77
2021/04/26 05:29:21;;;;;;;9.52;3.65;;;4.50;73.50;;;;;;5106160;28;20035;-77
2021/04/26 05:31:47;;;;;;;7.45;3.00;;;4.50;73.50;;;;;;5113774;28;20027;-77
2021/04/26 05:34:12;;;;;;;6.90;3.20;;;4.60;73.50;;;;;;5095842;28;20111;-77
2021/04/26 05:36:38;;;;;;;5.57;3.22;;;4.60;74.00;;;;;;5093008;28;20036;-77
2021/04/26 05:39:04;;;;;;;8.05;3.50;;;4.60;73.10;;;;;;5075257;28;20034;-76
2021/04/26 05:41:30;;;;;;;11.30;3.65;;;4.60;73.30;;;;;;5093153;28;20024;-76
2021/04/26 05:43:55;;;;;;;10.30;3.65;;;4.60;73.20;;;;;;5093066;28;20550;-77
2021/04/26 05:46:22;;;;;;;8.40;3.45;;;4.70;73.40;;;;;;5088828;28;20028;-77
2021/04/26 05:48:48;;;;;;;7.18;3.33;;;4.70;73.40;;;;;;5088118;28;20532;-77
2021/04/26 05:51:14;;;;;;;6.55;3.35;;;4.80;73.20;;;;;;5074762;28;20044;-74
2021/04/26 05:53:40;;;;;;;5.63;3.53;;;4.90;73.20;;;;;;5074806;28;20123;-74
2021/04/26 05:56:05;;;;;;;10.45;3.40;;;4.90;72.90;;;;;;5091767;28;20032;-74
2021/04/26 05:58:31;;;;;;;9.75;3.30;;;4.90;72.90;;;;;;5091129;28;20057;-74
2021/04/26 06:00:57;;;;;;;6.18;3.15;;;5.00;72.80;;;;;;5091410;28;20388;-74
2021/04/26 06:03:22;;;;;;;9.77;3.38;;;5.10;72.60;;;;;;5092555;28;20024;-74
2021/04/26 06:05:48;;;;;;;5.15;3.20;;;5.20;72.40;;;;;;5092495;28;20039;-74
2021/04/26 06:08:14;;;;;;;8.02;3.28;;;5.30;72.00;;;;;;5074750;28;20084;-74
2021/04/26 06:10:39;;;;;;;8.40;3.28;;;5.40;71.70;;;;;;5091228;28;20032;-74
2021/04/26 06:13:05;;;;;;;7.22;3.55;;;5.50;71.30;;;;;;5092708;28;20036;-75
2021/04/26 06:15:31;;;;;;;7.85;3.65;;;5.60;71.10;;;;;;5074687;28;20032;-74
2021/04/26 06:18:09;;;;;;;13.35;3.67;;;5.60;70.60;;;;;;5091962;28;20031;-74
2021/04/26 06:20:35;;;;;;;10.77;3.42;;;5.70;70.40;;;;;;5096346;28;20090;-74
2021/04/26 06:23:00;;;;;;;7.25;3.53;;;5.80;70.00;;;;;;5095183;28;20028;-74
2021/04/26 06:25:26;;;;;;;8.63;3.90;;;5.90;69.50;;;;;;5094957;28;20040;-74
2021/04/26 06:27:52;;;;;;;6.80;3.25;;;6.00;69.80;;;;;;5094942;28;20032;-74
2021/04/26 06:30:18;;;;;;;8.00;3.75;;;6.10;68.80;;;;;;5096392;28;20412;-75
2021/04/26 06:32:43;;;;;;;8.88;3.47;;;6.20;68.40;;;;;;5074759;28;20120;-74
2021/04/26 06:35:09;;;;;;;12.02;3.50;;;6.30;68.10;;;;;;5086644;28;20060;-74
2021/04/26 06:37:35;;;;;;;10.55;3.75;;;6.40;68.00;;;;;;5094283;28;20039;-74
2021/04/26 06:40:00;;;;;;;11.70;3.75;;;6.50;67.80;;;;;;5094760;28;20035;-74
2021/04/26 06:42:26;;;;;;;9.00;4.10;;;6.60;67.50;;;;;;5074314;28;20033;-74
2021/04/26 06:44:52;;;;;;;9.52;3.75;;;6.80;66.90;;;;;;5083309;28;20059;-74
2021/04/26 06:47:17;;;;;;;6.95;3.30;;;6.90;66.40;;;;;;5095124;28;20111;-74
2021/04/26 06:49:43;;;;;;;9.55;3.60;;;7.10;66.00;;;;;;5095100;28;20052;-74
2021/04/26 06:52:08;;;;;;;10.48;3.80;;;7.20;65.00;;;;;;5097849;28;20031;-74
2021/04/26 06:54:34;;;;;;;14.65;3.75;;;7.40;64.80;;;;;;5094202;28;20024;-74
2021/04/26 06:56:59;;;;;;;9.27;3.65;;;7.50;64.30;;;;;;5079773;28;20480;-74
2021/04/26 06:59:25;;;;;;;6.70;3.42;;;7.60;63.50;;;;;;5113485;28;20055;-74
2021/04/26 07:01:51;;;;;;;9.20;3.30;;;7.80;63.00;;;;;;5097179;28;20035;-74
2021/04/26 07:04:16;;;;;;;9.05;3.45;;;7.90;62.40;;;;;;5095710;28;20039;-74
2021/04/26 07:06:42;;;;;;;7.90;3.47;;;8.00;62.10;;;;;;5099420;28;20369;-74
2021/04/26 07:09:08;;;;;;;7.70;3.42;;;8.20;61.80;;;;;;5099531;28;20032;-74
2021/04/26 07:11:33;;;;;;;4.93;2.97;;;8.40;61.40;;;;;;5094046;28;20115;-74
2021/04/26 07:13:59;;;;;;;9.35;3.30;;;8.60;61.00;;;;;;5094656;28;20421;-74
2021/04/26 07:16:25;;;;;;;6.15;3.17;;;8.70;60.60;;;;;;5094782;28;20471;-74
2021/04/26 07:18:51;;;;;;;10.40;4.00;;;9.00;59.80;;;;;;5095837;28;20046;-74
2021/04/26 07:21:17;;;;;;;8.38;3.70;;;9.00;59.40;;;;;;5077626;28;20500;-74
2021/04/26 07:23:42;;;;;;;8.13;3.50;;;9.20;58.80;;;;;;5094231;28;20032;-74
2021/04/26 07:26:08;;;;;;;9.82;3.10;;;9.30;58.10;;;;;;5093548;28;20064;-74
2021/04/26 07:28:37;;;;;;;7.00;3.50;;;9.40;57.60;;;;;;5077387;28;20488;-74
2021/04/26 07:31:03;;;;;;;9.65;3.80;;;9.60;57.20;;;;;;5094448;28;20035;-74
2021/04/26 07:33:28;;;;;;;10.43;3.20;;;9.70;56.60;;;;;;5094315;28;20024;-74
2021/04/26 07:35:54;;;;;;;7.95;3.50;;;9.80;56.50;;;;;;5077047;28;20496;-74
2021/04/26 07:38:20;;;;;;;17.83;3.20;;;9.90;55.80;;;;;;5093554;28;20024;-74
2021/04/26 07:40:45;;;;;;;8.23;3.30;;;10.00;55.60;;;;;;5093765;28;20560;-75
2021/04/26 07:43:11;;;;;;;5.68;2.78;;;10.10;56.20;;;;;;5077119;28;20032;-74
2021/04/26 07:45:36;;;;;;;6.63;3.60;;;10.20;54.50;;;;;;5093571;28;20418;-76
2021/04/26 07:48:02;;;;;;;7.75;3.35;;;10.30;54.60;;;;;;5093949;28;20525;-75
2021/04/26 07:50:28;;;;;;;6.53;3.10;;;10.40;54.20;;;;;;5095395;28;20039;-75
2021/04/26 07:52:54;;;;;;;6.35;3.45;;;10.60;54.20;;;;;;5072738;28;20037;-75
2021/04/26 07:55:19;;;;;;;7.25;3.58;;;10.70;53.50;;;;;;5089980;28;20396;-75
2021/04/26 07:57:45;;;;;;;7.20;3.45;;;10.80;53.10;;;;;;5095440;28;20040;-75
2021/04/26 08:00:11;;;;;;;8.32;3.20;;;10.90;53.00;;;;;;5095046;28;20414;-75
2021/04/26 08:02:37;;;;;;;10.75;3.50;;;11.10;52.20;;;;;;5093791;28;20123;-75
2021/04/26 08:05:03;;;;;;;6.13;3.13;;;11.30;52.10;;;;;;5093489;28;20055;-75
2021/04/26 08:07:29;;;;;;;7.78;2.95;;;11.40;51.60;;;;;;5094996;28;20058;-75
2021/04/26 08:09:54;;;;;;;8.45;3.05;;;11.60;51.70;;;;;;5092991;28;20056;-75
2021/04/26 08:12:20;;;;;;;5.70;2.90;;;11.80;50.70;;;;;;5076535;28;20032;-76
2021/04/26 08:14:47;;;;;;;7.72;3.47;;;12.00;49.70;;;;;;5076051;28;20069;-76
2021/04/26 08:17:13;;;;;;;11.63;3.15;;;12.10;49.60;;;;;;5094351;28;20028;-76
2021/04/26 08:19:38;;;;;;;8.70;3.10;;;12.30;47.50;;;;;;5092373;28;20093;-74
2021/04/26 08:22:04;;;;;;;6.07;2.70;;;12.40;48.20;;;;;;5091273;28;20029;-74
2021/04/26 08:24:29;;;;;;;5.82;3.05;;;12.50;47.70;;;;;;5107854;28;20119;-74
2021/04/26 08:26:56;;;;;;;6.10;2.35;;;12.50;46.70;;;;;;5092723;28;20122;-74
2021/04/26 08:29:22;;;;;;;5.57;2.95;;;12.60;46.40;;;;;;5099552;28;20033;-74
2021/04/26 08:31:48;;;;;;;7.25;3.05;;;12.70;46.10;;;;;;5072849;28;20028;-74
2021/04/26 08:34:14;;;;;;;9.75;2.80;;;12.80;45.60;;;;;;5094234;28;20028;-75
2021/04/26 08:36:40;;;;;;;4.60;2.40;;;12.90;46.20;;;;;;5093277;28;20042;-77
2021/04/26 08:39:06;;;;;;;6.95;2.47;;;13.10;44.10;;;;;;5093164;28;20430;-77
2021/04/26 08:41:32;;;;;;;4.40;2.10;;;13.10;45.00;;;;;;5055769;28;20028;-77
2021/04/26 08:43:58;;;;;;;4.40;1.95;;;13.30;42.00;;;;;;5093095;28;20032;-77
2021/04/26 08:46:24;;;;;;;5.05;2.15;;;13.30;41.60;;;;;;5093590;28;20035;-76
2021/04/26 08:48:49;;;;;;;11.15;2.60;;;13.40;41.60;;;;;;5092929;28;20032;-76
2021/04/26 08:51:15;;;;;;;5.72;1.73;;;13.60;41.60;;;;;;5077689;28;20032;-76
2021/04/26 08:53:41;;;;;;;4.32;1.80;;;13.80;41.00;;;;;;5073575;28;20119;-80
2021/04/26 08:56:10;;;;;;;5.68;1.80;;;13.90;41.70;;;;;;5093116;28;20467;-80
2021/04/26 08:58:36;;;;;;;6.85;2.13;;;14.10;41.20;;;;;;5090641;28;20024;-79
2021/04/26 09:01:02;;;;;;;5.78;1.70;;;14.20;41.40;;;;;;5092507;28;20035;-79
2021/04/26 09:03:38;;;;;;;5.03;2.00;;;14.30;41.10;;;;;;5092712;28;20031;-79
2021/04/26 09:06:08;;;;;;;4.32;1.88;;;14.40;40.00;;;;;;5076107;28;20032;-79
2021/04/26 09:08:33;;;;;;;5.70;2.00;;;14.50;39.80;;;;;;5081314;28;20035;-79
2021/04/26 09:11:02;;;;;;;6.03;2.30;;;14.60;39.80;;;;;;5092327;28;20396;-79
2021/04/26 09:13:45;;;;;;;5.10;2.10;;;14.60;38.10;;;;;;5091244;28;20088;-79
2021/04/26 09:16:22;;;;;;;5.43;1.98;;;14.60;38.90;;;;;;5089123;28;20161;-79
2021/04/26 09:18:59;;;;;;;7.47;2.03;;;14.60;39.50;;;;;;5084731;28;20020;-79
2021/04/26 09:21:30;;;;;;;4.78;2.22;;;14.70;38.60;;;;;;5079617;28;20486;-79
2021/04/26 09:24:28;;;;;;;7.18;1.90;;;14.70;38.70;;;;;;5093827;28;20024;-79
2021/04/26 09:27:12;;;;;;;8.18;1.95;;;14.90;38.50;;;;;;5082003;28;20040;-80
2021/04/26 09:29:39;;;;;;;7.28;1.77;;;15.10;38.30;;;;;;5092077;28;20059;-79
2021/04/26 09:32:17;;;;;;;4.07;1.95;;;15.20;38.70;;;;;;5093310;28;20046;-80
2021/04/26 09:34:54;;;;;;;4.55;2.00;;;15.40;38.30;;;;;;5093298;28;20024;-79
2021/04/26 09:37:20;;;;;;;6.47;2.47;;;15.50;37.60;;;;;;5092965;28;20043;-79
2021/04/26 09:39:56;;;;;;;5.47;2.20;;;15.60;36.20;;;;;;5092748;28;20492;-78
2021/04/26 09:42:42;;;;;;;4.47;2.20;;;15.60;35.30;;;;;;5092562;28;20035;-78
2021/04/26 09:45:32;;;;;;;7.38;2.20;;;15.40;35.40;;;;;;5093423;28;20020;-78
2021/04/26 09:48:21;;;;;;;4.70;2.17;;;15.30;36.20;;;;;;5093128;28;20170;-78
2021/04/26 09:51:06;;;;;;;5.43;2.30;;;15.20;35.80;;;;;;5092863;28;20043;-78
2021/04/26 09:53:54;;;;;;;4.28;2.40;;;15.10;34.80;;;;;;5092594;28;20020;-78
2021/04/26 09:56:20;;;;;;;8.85;2.28;;;15.10;36.00;;;;;;5093032;28;20705;-78
2021/04/26 09:58:50;;;;;;;3.65;2.33;;;15.20;36.40;;;;;;5092975;28;20034;-78
2021/04/26 10:01:16;;;;;;;5.47;2.30;;;15.40;36.60;;;;;;5093165;28;20429;-78
2021/04/26 10:03:42;;;;;;;4.60;2.25;;;15.70;35.00;;;;;;5092155;28;20086;-78
2021/04/26 10:06:08;;;;;;;5.78;2.50;;;15.70;34.90;;;;;;5093463;28;20028;-78
2021/04/26 10:08:35;;;;;;;5.35;2.30;;;15.70;35.10;;;;;;5093644;28;20024;-78
2021/04/26 10:11:01;;;;;;;3.90;2.20;;;15.70;34.20;;;;;;5093182;28;21091;-78
2021/04/26 10:13:27;;;;;;;3.30;1.90;;;15.80;35.60;;;;;;5092444;28;20028;-78
2021/04/26 10:15:55;;;;;;;5.03;1.98;;;15.80;34.40;;;;;;5093023;28;20032;-78
2021/04/26 10:18:27;;;;;;;4.10;2.10;;;15.90;35.00;;;;;;5091785;28;20111;-78
2021/04/26 10:20:52;;;;;;;5.68;1.98;;;16.10;34.30;;;;;;5092881;28;20750;-79
2021/04/26 10:23:37;;;;;;;7.63;1.83;;;16.20;34.40;;;;;;5093182;28;20040;-78
2021/04/26 10:26:03;;;;;;;6.88;2.53;;;16.30;34.70;;;;;;5093149;28;20537;-78
2021/04/26 10:28:37;;;;;;;4.05;2.08;;;16.40;33.60;;;;;;5093382;28;20044;-78
2021/04/26 10:31:13;;;;;;;5.20;2.30;;;16.40;33.60;;;;;;5092903;28;20034;-78
2021/04/26 10:34:00;;;;;;;5.57;2.40;;;16.50;33.90;;;;;;5092604;28;20453;-78
2021/04/26 10:36:41;;;;;;;6.72;2.47;;;16.60;33.60;;;;;;5092813;28;20044;-78
2021/04/26 10:39:08;;;;;;;3.85;2.17;;;16.60;32.50;;;;;;5093243;28;20040;-78
2021/04/26 10:41:47;;;;;;;4.00;2.30;;;16.60;32.70;;;;;;5091711;28;20020;-78
2021/04/26 10:44:36;;;;;;;6.78;2.38;;;16.60;33.10;;;;;;5091669;28;20028;-78
2021/04/26 10:47:13;;;;;;;;;;;16.70;33.40;;;;;;5093184;28;20032;-78
2021/04/26 10:49:39;;;;;;;4.30;2.20;;;16.80;33.90;;;;;;5092735;28;19919;-78
2021/04/26 10:52:27;;;;;;;7.28;2.78;;;17.00;33.20;;;;;;5091352;28;20024;-78
2021/04/26 10:54:54;;;;;;;7.15;2.40;;;17.00;32.20;;;;;;5093431;28;20353;-78
2021/04/26 10:57:50;;;;;;;9.18;2.50;;;17.00;32.70;;;;;;5092739;28;20041;-78
2021/04/26 11:00:32;;;;;;;5.88;2.22;;;17.10;32.60;;;;;;5088068;28;20032;-78
2021/04/26 11:03:25;;;;;;;8.52;2.45;;;17.10;32.30;;;;;;5092727;28;20016;-78
2021/04/26 11:05:54;;;;;;;3.83;2.30;;;17.10;31.90;;;;;;5093156;28;20028;-78
2021/04/26 11:11:15;;;;;;;8.40;2.33;;;16.90;31.20;;;;;;5096173;28;20111;-78
2021/04/26 11:13:52;;;;;;;7.22;2.47;;;16.70;31.60;;;;;;5096262;28;20042;-79
2021/04/26 11:16:21;;;;;;;7.20;2.38;;;16.70;32.20;;;;;;5096277;28;20016;-78
2021/04/26 11:18:59;;;;;;;8.02;2.25;;;16.90;32.80;;;;;;5094900;28;20473;-78
2021/04/26 11:21:43;;;;;;;5.67;2.30;;;17.10;32.90;;;;;;5095784;28;20028;-78
2021/04/26 11:24:14;;;;;;;7.93;2.40;;;17.40;32.40;;;;;;5095514;28;20055;-78
2021/04/26 11:26:39;;;;;;;4.88;2.13;;;17.50;30.80;;;;;;5095864;28;20032;-78
2021/04/26 11:29:13;;;;;;;11.77;2.50;;;17.40;30.70;;;;;;5095751;28;20101;-79
2021/04/26 11:31:42;;;;;;;6.80;2.30;;;17.30;31.30;;;;;;5094064;28;20416;-78
2021/04/26 11:34:48;;;;;;;9.18;2.40;;;17.40;31.90;;;;;;5094348;28;20026;-78
2021/04/26 11:37:23;;;;;;;7.25;2.47;;;17.70;32.00;;;;;;5074840;28;20094;-78
2021/04/26 11:39:53;;;;;;;8.85;2.70;;;17.70;30.80;;;;;;5075340;28;20082;-78
2021/04/26 11:42:32;;;;;;;4.53;2.50;;;17.70;30.90;;;;;;5075017;28;20477;-78
2021/04/26 11:44:58;;;;;;;;;;;17.70;29.80;;;;;;5074179;28;20063;-78
2021/04/26 11:47:25;;;;;;;6.07;2.60;;;17.70;30.60;;;;;;5073788;28;19943;-78
2021/04/26 11:49:52;;;;;;;3.78;2.00;;;17.80;30.50;;;;;;5086105;28;20040;-79
2021/04/26 11:52:19;;;;;;;5.25;2.58;;;17.90;31.20;;;;;;5095630;28;20024;-78
2021/04/26 11:54:50;;;;;;;9.65;2.75;;;18.00;30.90;;;;;;5095281;28;20026;-79
2021/04/26 11:57:23;;;;;;;7.97;2.78;;;18.10;30.70;;;;;;5095321;28;20051;-79
2021/04/26 11:59:55;;;;;;;9.00;2.67;;;18.20;30.90;;;;;;5094149;28;20035;-79
2021/04/26 12:02:32;;;;;;;7.65;2.03;;;18.30;31.00;;;;;;5094063;28;20115;-78
2021/04/26 12:05:00;;;;;;;5.78;2.30;;;18.50;30.20;;;;;;5095286;28;20035;-78
2021/04/26 12:07:26;;;;;;;9.03;2.33;;;18.60;30.40;;;;;;5095160;28;20032;-78
2021/04/26 12:10:00;;;;;;;7.38;2.63;;;18.70;29.90;;;;;;5095011;28;20282;-79
2021/04/26 12:12:28;;;;;;;5.05;2.45;;;18.90;29.80;;;;;;5095120;28;20044;-79
2021/04/26 12:14:55;;;;;;;8.13;2.60;;;18.80;29.70;;;;;;5094618;28;20058;-79
2021/04/26 12:17:25;;;;;;;6.03;2.10;;;18.80;29.70;;;;;;5094290;28;20025;-79
2021/04/26 12:19:51;;;;;;;3.95;2.58;;;18.90;30.00;;;;;;5094636;28;20536;-79
2021/04/26 12:22:20;;;;;;;5.28;2.53;;;18.90;30.00;;;;;;5095345;28;20362;-79
2021/04/26 12:24:46;;;;;;;4.90;2.30;;;18.80;29.80;;;;;;5094540;28;20052;-78
2021/04/26 12:27:15;;;;;;;5.82;2.20;;;18.80;29.90;;;;;;5094416;28;20066;-79
2021/04/26 12:29:41;;;;;;;6.68;2.60;;;18.80;30.00;;;;;;5094411;28;20031;-79
2021/04/26 12:32:18;;;;;;;6.35;2.50;;;18.90;30.00;;;;;;5094569;28;20445;-78
2021/04/26 12:34:53;;;;;;;11.48;2.80;;;18.90;30.00;;;;;;5094679;28;20091;-79
2021/04/26 12:37:21;;;;;;;6.05;2.65;;;18.90;30.00;;;;;;5094640;28;20036;-78
2021/04/26 12:39:48;;;;;;;8.60;2.70;;;19.00;30.00;;;;;;5094726;28;20465;-78
2021/04/26 12:42:24;;;;;;;6.65;2.47;;;19.00;29.50;;;;;;5094454;28;20036;-78
2021/04/26 12:44:49;;;;;;;4.95;2.25;;;18.90;29.20;;;;;;5094377;28;20024;-78
2021/04/26 12:47:21;;;;;;;5.20;2.75;;;18.90;29.60;;;;;;5093460;28;20028;-78
2021/04/26 12:49:47;;;;;;;3.88;2.50;;;18.80;29.10;;;;;;5093135;28;20384;-79
2021/04/26 12:52:16;;;;;;;4.50;2.40;;;18.70;29.10;;;;;;5076471;28;20039;-78
2021/04/26 12:55:00;;;;;;;11.00;2.75;;;18.60;29.70;;;;;;5094245;28;20012;-78
2021/04/26 12:57:27;;;;;;;8.48;2.90;;;18.60;29.70;;;;;;5094477;28;20032;-78
2021/04/26 12:59:52;;;;;;;3.10;2.40;;;18.70;29.90;;;;;;5092835;28;20503;-78
2021/04/26 13:02:28;;;;;;;5.18;2.35;;;18.70;29.70;;;;;;5092951;28;20032;-78
2021/04/26 13:04:56;;;;;;;5.97;2.80;;;18.80;30.30;;;;;;5093128;28;20032;-78